createdAt,value
2017-05-25T00:01:58.663Z,4.86
2017-05-25T00:04:25.679Z,5.10
2017-05-25T00:06:53.691Z,9.64
2017-05-25T00:09:21.779Z,7.50
2017-05-25T00:11:49.167Z,5.20
2017-05-25T00:14:16.946Z,4.84
2017-05-25T00:16:44.927Z,4.78
2017-05-25T00:19:12.934Z,5.38
2017-05-25T00:21:41.058Z,8.16
2017-05-25T00:24:09.116Z,5.32
2017-05-25T00:26:36.869Z,5.88
2017-05-25T00:29:04.946Z,7.52
2017-05-25T00:31:31.960Z,7.06
2017-05-25T00:33:59.362Z,5.66
2017-05-25T00:36:26.775Z,5.74
2017-05-25T00:38:54.932Z,6.02
2017-05-25T00:41:22.956Z,5.42
2017-05-25T00:43:50.770Z,7.96
2017-05-25T00:46:33.814Z,5.84
2017-05-25T00:49:01.837Z,6.60
2017-05-25T00:51:28.509Z,8.52
2017-05-25T00:53:56.603Z,6.96
2017-05-25T00:56:23.273Z,6.36
2017-05-25T00:58:50.438Z,7.34
2017-05-25T01:01:18.439Z,6.32
2017-05-25T01:03:46.438Z,8.98
2017-05-25T01:06:13.519Z,7.16
2017-05-25T01:08:41.517Z,9.34
2017-05-25T01:11:08.916Z,9.08
2017-05-25T01:13:35.932Z,6.70
2017-05-25T01:16:03.969Z,10.60
2017-05-25T01:18:31.979Z,8.64
2017-05-25T01:20:59.072Z,9.10
2017-05-25T01:23:25.756Z,7.96
2017-05-25T01:25:53.512Z,7.72
2017-05-25T01:28:21.619Z,6.30
2017-05-25T01:30:48.669Z,6.78
2017-05-25T01:33:16.486Z,6.84
2017-05-25T01:35:43.538Z,7.18
2017-05-25T01:38:11.574Z,6.40
2017-05-25T01:40:38.634Z,7.80
2017-05-25T01:43:05.890Z,8.58
2017-05-25T01:45:33.887Z,7.94
2017-05-25T01:48:01.895Z,7.44
2017-05-25T01:50:29.322Z,10.32
2017-05-25T01:52:56.715Z,7.88
2017-05-25T01:55:23.410Z,11.06
2017-05-25T01:57:50.432Z,7.14
2017-05-25T02:00:17.112Z,7.02
2017-05-25T02:02:44.157Z,6.84
2017-05-25T02:05:11.902Z,7.66
2017-05-25T02:07:38.550Z,6.96
2017-05-25T02:10:05.198Z,9.10
2017-05-25T02:12:32.207Z,8.08
2017-05-25T02:15:00.078Z,7.86
2017-05-25T02:17:27.126Z,9.06
2017-05-25T02:19:55.125Z,9.52
2017-05-25T02:22:23.137Z,9.50
2017-05-25T02:24:51.153Z,11.90
2017-05-25T02:27:18.169Z,8.62
2017-05-25T02:29:45.172Z,9.10
2017-05-25T02:32:12.204Z,12.72
2017-05-25T02:34:39.959Z,10.72
2017-05-25T02:37:06.978Z,11.34
2017-05-25T02:39:35.006Z,10.46
2017-05-25T02:42:02.070Z,11.50
2017-05-25T02:44:29.471Z,11.50
2017-05-25T02:46:57.222Z,13.52
2017-05-25T02:49:25.226Z,13.10
2017-05-25T02:51:52.990Z,12.26
2017-05-25T02:54:20.981Z,13.44
2017-05-25T02:56:48.385Z,12.82
2017-05-25T02:59:16.182Z,12.04
2017-05-25T03:01:43.219Z,12.08
2017-05-25T03:04:10.608Z,14.92
2017-05-25T03:06:37.630Z,13.12
2017-05-25T03:09:05.618Z,11.58
2017-05-25T03:11:32.262Z,10.72
2017-05-25T03:14:00.263Z,11.36
2017-05-25T03:16:27.305Z,10.70
2017-05-25T03:18:55.339Z,11.22
2017-05-25T03:21:22.408Z,11.28
2017-05-25T03:23:49.074Z,12.84
2017-05-25T03:26:16.097Z,15.12
2017-05-25T03:28:43.112Z,13.38
2017-05-25T03:31:11.111Z,11.12
2017-05-25T03:33:38.133Z,13.90
2017-05-25T03:36:05.160Z,10.76
2017-05-25T03:38:32.265Z,12.46
2017-05-25T03:40:59.290Z,13.62
2017-05-25T03:43:26.311Z,12.92
2017-05-25T03:45:53.360Z,12.44
2017-05-25T03:48:21.342Z,11.80
2017-05-25T03:50:49.366Z,11.22
2017-05-25T03:53:16.103Z,11.16
2017-05-25T03:55:43.227Z,12.84
2017-05-25T03:58:11.262Z,11.66
2017-05-25T04:00:38.068Z,13.04
2017-05-25T04:03:05.084Z,12.24
2017-05-25T04:05:32.099Z,13.52
2017-05-25T04:07:58.433Z,12.04
2017-05-25T04:10:25.068Z,10.62
2017-05-25T04:12:53.087Z,14.70
2017-05-25T04:15:21.075Z,11.84
2017-05-25T04:17:48.159Z,13.46
2017-05-25T04:20:16.154Z,11.64
2017-05-25T04:22:44.134Z,11.68
2017-05-25T04:25:11.142Z,12.72
2017-05-25T04:27:38.194Z,11.54
2017-05-25T04:30:05.219Z,11.80
2017-05-25T04:32:31.858Z,12.72
2017-05-25T04:34:58.902Z,10.90
2017-05-25T04:37:25.932Z,10.40
2017-05-25T04:39:52.623Z,12.54
2017-05-25T04:42:20.631Z,11.68
2017-05-25T04:44:48.663Z,12.98
2017-05-25T04:47:15.679Z,12.58
2017-05-25T04:49:42.699Z,11.92
2017-05-25T04:52:09.745Z,14.68
2017-05-25T04:54:37.773Z,14.22
2017-05-25T04:57:04.787Z,13.36
2017-05-25T04:59:32.781Z,12.62
2017-05-25T05:01:59.842Z,12.06
2017-05-25T05:04:26.854Z,13.38
2017-05-25T05:06:53.869Z,13.28
2017-05-25T05:09:21.879Z,12.88
2017-05-25T05:11:48.902Z,13.36
2017-05-25T05:14:15.977Z,14.30
2017-05-25T05:16:43.973Z,12.04
2017-05-25T05:19:11.967Z,15.06
2017-05-25T05:21:38.630Z,13.48
2017-05-25T05:24:05.666Z,17.08
2017-05-25T05:26:32.750Z,13.96
2017-05-25T05:28:59.779Z,12.90
2017-05-25T05:31:26.495Z,14.46
2017-05-25T05:33:53.542Z,13.88
2017-05-25T05:36:21.562Z,13.06
2017-05-25T05:38:49.570Z,13.80
2017-05-25T05:41:17.350Z,12.10
2017-05-25T05:43:44.389Z,13.06
2017-05-25T05:46:11.462Z,14.58
2017-05-25T05:48:39.465Z,13.20
2017-05-25T05:51:06.128Z,15.82
2017-05-25T05:53:32.839Z,13.32
2017-05-25T05:56:00.272Z,13.28
2017-05-25T05:58:27.650Z,11.02
2017-05-25T06:00:55.665Z,10.88
2017-05-25T06:03:23.657Z,11.06
2017-05-25T06:05:50.722Z,15.06
2017-05-25T06:08:17.751Z,13.36
2017-05-25T06:10:44.771Z,14.36
2017-05-25T06:13:11.859Z,13.96
2017-05-25T06:15:38.887Z,13.92
2017-05-25T06:18:06.878Z,13.38
2017-05-25T06:20:34.881Z,13.98
2017-05-25T06:23:01.920Z,18.88
2017-05-25T06:25:28.987Z,12.40
2017-05-25T06:27:56.372Z,13.02
2017-05-25T06:30:24.422Z,12.16
2017-05-25T06:32:51.436Z,11.24
2017-05-25T06:35:18.506Z,11.98
2017-05-25T06:37:45.577Z,10.42
2017-05-25T06:40:12.630Z,12.76
2017-05-25T06:42:39.688Z,12.60
2017-05-25T06:45:07.077Z,11.94
2017-05-25T06:47:33.775Z,11.10
2017-05-25T06:50:01.810Z,11.58
2017-05-25T06:52:28.587Z,12.26
2017-05-25T06:54:55.967Z,11.86
2017-05-25T06:57:23.750Z,11.46
2017-05-25T06:59:51.517Z,11.54
2017-05-25T07:02:19.675Z,10.92
2017-05-25T07:04:46.618Z,11.00
2017-05-25T07:07:14.433Z,10.18
2017-05-25T07:09:41.511Z,10.20
2017-05-25T07:12:08.530Z,8.92
2017-05-25T07:14:36.586Z,11.84
2017-05-25T07:17:04.258Z,10.52
2017-05-25T07:19:32.308Z,12.92
2017-05-25T07:21:59.345Z,11.70
2017-05-25T07:24:27.155Z,11.98
2017-05-25T07:26:53.816Z,12.06
2017-05-25T07:29:21.814Z,11.14
2017-05-25T07:31:48.890Z,10.56
2017-05-25T07:34:16.266Z,11.10
2017-05-25T07:36:43.280Z,11.74
2017-05-25T07:39:10.339Z,10.92
2017-05-25T07:41:37.369Z,9.84
2017-05-25T07:44:05.089Z,10.66
2017-05-25T07:46:33.279Z,10.72
2017-05-25T07:49:01.357Z,11.36
2017-05-25T07:51:29.409Z,11.02
2017-05-25T07:53:57.495Z,11.18
2017-05-25T07:56:24.546Z,10.62
2017-05-25T07:58:51.926Z,10.84
2017-05-25T08:01:18.565Z,10.26
2017-05-25T08:03:45.658Z,10.64
2017-05-25T08:06:12.756Z,12.20
2017-05-25T08:08:40.169Z,10.64
2017-05-25T08:11:07.215Z,11.18
2017-05-25T08:13:34.239Z,10.16
2017-05-25T08:16:01.359Z,11.34
2017-05-25T08:18:27.997Z,10.32
2017-05-25T08:20:55.998Z,9.92
2017-05-25T08:23:24.057Z,10.26
2017-05-25T08:25:51.192Z,10.50
2017-05-25T08:28:18.246Z,10.98
2017-05-25T08:30:46.370Z,12.12
2017-05-25T08:33:14.147Z,10.64
2017-05-25T08:35:42.162Z,11.16
2017-05-25T08:38:09.182Z,9.70
2017-05-25T08:40:36.227Z,9.66
2017-05-25T08:43:03.683Z,9.28
2017-05-25T08:45:30.732Z,10.40
2017-05-25T08:47:58.650Z,9.24
2017-05-25T08:50:25.725Z,10.40
2017-05-25T08:52:53.769Z,10.44
2017-05-25T08:55:21.530Z,10.30
2017-05-25T08:57:48.171Z,10.96
2017-05-25T09:00:15.942Z,11.54
2017-05-25T09:02:42.991Z,11.42
2017-05-25T09:05:09.999Z,11.68
2017-05-25T09:07:37.050Z,10.14
2017-05-25T09:10:04.083Z,10.62
2017-05-25T09:12:31.463Z,10.42
2017-05-25T09:14:58.497Z,11.02
2017-05-25T09:17:26.477Z,9.60
2017-05-25T09:19:53.871Z,9.74
2017-05-25T09:22:21.885Z,9.62
2017-05-25T09:24:49.878Z,9.60
2017-05-25T09:27:16.901Z,9.78
2017-05-25T09:29:44.890Z,10.08
2017-05-25T09:32:11.530Z,9.48
2017-05-25T09:34:38.587Z,9.02
2017-05-25T09:37:05.606Z,9.18
2017-05-25T09:39:32.679Z,12.56
2017-05-25T09:42:00.460Z,11.26
2017-05-25T09:44:27.471Z,10.72
2017-05-25T09:46:54.150Z,11.36
2017-05-25T09:49:22.223Z,9.18
2017-05-25T09:51:49.259Z,10.00
2017-05-25T09:54:17.306Z,7.98
2017-05-25T09:56:45.346Z,8.50
2017-05-25T09:59:12.754Z,9.38
2017-05-25T10:01:39.773Z,10.06
2017-05-25T10:04:06.820Z,12.12
2017-05-25T10:06:33.877Z,11.46
2017-05-25T10:09:00.928Z,13.20
2017-05-25T10:11:28.951Z,12.18
2017-05-25T10:13:56.943Z,10.80
2017-05-25T10:16:24.943Z,11.42
2017-05-25T10:18:52.963Z,12.24
2017-05-25T10:21:20.977Z,13.38
2017-05-25T10:23:48.995Z,12.06
2017-05-25T10:26:17.032Z,11.18
2017-05-25T10:28:43.675Z,13.40
2017-05-25T10:31:10.707Z,13.94
2017-05-25T10:33:38.100Z,11.58
2017-05-25T10:36:05.133Z,9.88
2017-05-25T10:38:32.530Z,10.76
2017-05-25T10:40:59.570Z,10.30
2017-05-25T10:43:26.603Z,8.94
2017-05-25T10:45:53.618Z,9.84
2017-05-25T10:48:20.348Z,9.48
2017-05-25T10:50:47.791Z,9.86
2017-05-25T10:53:14.860Z,10.28
2017-05-25T10:55:41.866Z,7.98
2017-05-25T10:58:09.960Z,9.16
2017-05-25T11:00:37.714Z,8.70
2017-05-25T11:03:05.714Z,8.48
2017-05-25T11:05:32.827Z,9.64
2017-05-25T11:07:59.866Z,8.92
2017-05-25T11:10:27.879Z,10.38
2017-05-25T11:12:54.521Z,10.04
2017-05-25T11:15:22.545Z,14.76
2017-05-25T11:17:50.566Z,10.30
2017-05-25T11:20:18.574Z,10.30
2017-05-25T11:22:45.610Z,9.34
2017-05-25T11:25:12.286Z,10.50
2017-05-25T11:27:40.289Z,9.12
2017-05-25T11:30:07.412Z,9.74
2017-05-25T11:32:34.822Z,10.88
2017-05-25T11:35:01.911Z,10.46
2017-05-25T11:37:29.759Z,10.32
2017-05-25T11:40:04.121Z,9.24
2017-05-25T11:42:31.210Z,9.98
2017-05-25T11:44:58.251Z,10.84
2017-05-25T11:47:25.652Z,11.50
2017-05-25T11:49:52.297Z,8.28
2017-05-25T11:52:19.373Z,7.94
2017-05-25T11:54:46.453Z,8.86
2017-05-25T11:57:14.438Z,8.76
2017-05-25T11:59:41.180Z,9.52
2017-05-25T12:02:08.597Z,10.06
2017-05-25T12:04:35.608Z,9.00
2017-05-25T12:07:02.701Z,9.76
2017-05-25T12:09:30.453Z,8.88
2017-05-25T12:11:57.477Z,7.20
2017-05-25T12:14:24.171Z,8.58
2017-05-25T12:16:51.195Z,9.92
2017-05-25T12:19:17.860Z,11.04
2017-05-25T12:21:44.876Z,6.66
2017-05-25T12:24:12.873Z,9.42
2017-05-25T12:26:40.923Z,6.92
2017-05-25T12:29:08.755Z,6.36
2017-05-25T12:31:36.089Z,6.76
2017-05-25T12:34:03.515Z,10.20
2017-05-25T12:36:31.058Z,9.06
2017-05-25T12:38:58.199Z,8.20
2017-05-25T12:41:25.482Z,6.60
2017-05-25T12:43:52.731Z,6.34
2017-05-25T12:46:19.974Z,6.00
2017-05-25T12:48:47.316Z,6.46
2017-05-25T12:51:14.230Z,9.18
2017-05-25T12:53:42.486Z,8.64
2017-05-25T12:56:09.765Z,6.16
2017-05-25T12:58:38.039Z,6.04
2017-05-25T13:01:06.354Z,7.00
2017-05-25T13:06:07.994Z,7.52
2017-05-25T13:08:35.081Z,6.56
2017-05-25T13:11:02.844Z,6.02
2017-05-25T13:13:29.858Z,5.42
2017-05-25T13:15:57.597Z,4.74
2017-05-25T13:18:24.651Z,5.36
2017-05-25T13:20:51.680Z,5.54
2017-05-25T13:23:18.334Z,6.68
2017-05-25T13:25:45.401Z,5.06
2017-05-25T13:28:13.418Z,4.76
2017-05-25T13:30:40.090Z,7.32
2017-05-25T13:33:07.937Z,7.24
2017-05-25T13:35:35.338Z,5.42
2017-05-25T13:38:02.415Z,4.44
2017-05-25T13:40:29.438Z,5.88
2017-05-25T13:42:56.540Z,5.12
2017-05-25T13:45:22.850Z,6.32
2017-05-25T13:47:49.901Z,5.26
2017-05-25T13:50:17.275Z,6.64
2017-05-25T13:52:43.602Z,6.74
2017-05-25T13:55:10.595Z,5.82
2017-05-25T13:57:38.351Z,6.56
2017-05-25T14:00:06.369Z,5.26
2017-05-25T14:02:34.363Z,7.18
2017-05-25T14:05:01.364Z,6.72
2017-05-25T14:07:28.406Z,6.48
2017-05-25T14:09:55.487Z,6.02
2017-05-25T14:12:22.125Z,6.68
2017-05-25T14:14:49.138Z,6.60
2017-05-25T14:17:15.786Z,7.38
2017-05-25T14:19:43.776Z,7.26
2017-05-25T14:22:10.798Z,5.52
2017-05-25T14:24:37.853Z,5.92
2017-05-25T14:27:04.853Z,5.70
2017-05-25T14:29:32.470Z,6.38
2017-05-25T14:32:00.461Z,4.92
2017-05-25T14:34:28.441Z,6.32
2017-05-25T14:36:56.420Z,5.70
2017-05-25T14:39:24.185Z,7.90
2017-05-25T14:41:51.938Z,6.18
2017-05-25T14:44:18.987Z,5.28
2017-05-25T14:46:46.661Z,5.64
2017-05-25T14:49:14.694Z,6.00
2017-05-25T14:51:42.468Z,6.24
2017-05-25T14:54:09.497Z,5.42
2017-05-25T14:56:36.888Z,6.02
2017-05-25T14:59:03.990Z,4.66
2017-05-25T15:01:31.021Z,8.34
2017-05-25T15:03:59.022Z,5.64
2017-05-25T15:06:26.062Z,9.50
2017-05-25T15:08:53.067Z,6.18
2017-05-25T15:11:21.077Z,4.80
2017-05-25T15:13:48.090Z,5.08
2017-05-25T15:16:15.890Z,4.50
2017-05-25T15:18:43.886Z,4.38
2017-05-25T15:21:10.910Z,5.04
2017-05-25T15:23:38.179Z,5.10
2017-05-25T15:26:06.139Z,4.98
2017-05-25T15:28:33.418Z,7.90
2017-05-25T15:31:01.031Z,6.08
2017-05-25T15:33:29.376Z,4.80
2017-05-25T15:35:56.987Z,8.68
2017-05-25T15:38:25.203Z,6.64
2017-05-25T15:40:53.216Z,6.20
2017-05-25T15:43:20.977Z,5.98
2017-05-25T15:45:47.977Z,4.40
2017-05-25T15:48:15.973Z,4.96
2017-05-25T15:50:43.038Z,5.86
2017-05-25T15:53:10.046Z,6.02
2017-05-25T15:55:37.058Z,6.76
2017-05-25T15:58:04.155Z,4.94
2017-05-25T16:00:32.022Z,5.18
2017-05-25T16:03:00.023Z,4.66
2017-05-25T16:05:28.018Z,4.94
2017-05-25T16:07:55.414Z,6.36
2017-05-25T16:10:22.434Z,7.12
2017-05-25T16:12:50.450Z,7.82
2017-05-25T16:15:18.457Z,7.00
2017-05-25T16:17:46.204Z,6.72
2017-05-25T16:20:14.221Z,7.00
2017-05-25T16:22:41.246Z,8.32
2017-05-25T16:25:07.530Z,8.68
2017-05-25T16:27:34.566Z,6.96
2017-05-25T16:30:01.966Z,5.02
2017-05-25T16:32:29.494Z,6.70
2017-05-25T16:34:57.598Z,6.24
2017-05-25T16:37:25.664Z,7.54
2017-05-25T16:39:53.484Z,9.96
2017-05-25T16:42:20.533Z,10.62
2017-05-25T16:44:48.523Z,5.80
2017-05-25T16:47:16.637Z,5.70
2017-05-25T16:49:44.648Z,6.22
2017-05-25T16:52:11.301Z,6.32
2017-05-25T16:54:37.978Z,5.88
2017-05-25T16:57:05.971Z,5.12
2017-05-25T16:59:33.979Z,7.98
2017-05-25T17:02:02.009Z,5.56
2017-05-25T17:04:30.060Z,7.98
2017-05-25T17:06:57.498Z,7.06
2017-05-25T17:09:24.521Z,6.98
2017-05-25T17:11:52.533Z,6.08
2017-05-25T17:14:20.527Z,6.08
2017-05-25T17:16:48.547Z,6.00
2017-05-25T17:19:15.966Z,5.66
2017-05-25T17:21:43.031Z,5.56
2017-05-25T17:24:10.067Z,7.42
2017-05-25T17:26:38.057Z,7.88
2017-05-25T17:29:06.314Z,8.38
2017-05-25T17:31:33.636Z,5.42
2017-05-25T17:34:01.629Z,5.46
2017-05-25T17:36:29.649Z,5.18
2017-05-25T17:38:57.637Z,5.52
2017-05-25T17:41:25.020Z,6.78
2017-05-25T17:43:52.414Z,6.08
2017-05-25T17:46:19.463Z,4.92
2017-05-25T17:48:46.490Z,6.66
2017-05-25T17:51:14.485Z,9.30
2017-05-25T17:53:42.488Z,10.00
2017-05-25T17:56:09.196Z,6.22
2017-05-25T17:58:37.210Z,5.32
2017-05-25T18:01:05.254Z,6.70
2017-05-25T18:03:33.255Z,5.64
2017-05-25T18:06:01.271Z,7.22
2017-05-25T18:08:27.969Z,7.16
2017-05-25T18:10:55.022Z,5.80
2017-05-25T18:13:22.816Z,6.12
2017-05-25T18:15:50.817Z,5.54
2017-05-25T18:18:18.575Z,8.68
2017-05-25T18:20:46.590Z,5.00
2017-05-25T18:23:14.622Z,5.12
2017-05-25T18:25:42.622Z,5.96
2017-05-25T18:28:09.277Z,4.26
2017-05-25T18:30:37.285Z,7.54
2017-05-25T18:33:05.502Z,5.70
2017-05-25T18:35:33.673Z,5.92
2017-05-25T18:38:01.436Z,6.18
2017-05-25T18:40:28.111Z,5.84
2017-05-25T18:42:55.542Z,8.00
2017-05-25T18:45:23.630Z,6.32
2017-05-25T18:47:51.646Z,4.34
2017-05-25T18:50:18.346Z,5.50
2017-05-25T18:52:46.360Z,6.82
2017-05-25T18:55:12.711Z,4.08
2017-05-25T18:57:39.775Z,4.22
2017-05-25T19:00:07.779Z,4.72
2017-05-25T19:02:35.791Z,4.58
2017-05-25T19:05:03.864Z,8.28
2017-05-25T19:07:31.656Z,4.50
2017-05-25T19:09:59.071Z,4.78
2017-05-25T19:12:25.711Z,4.76
2017-05-25T19:14:52.002Z,4.62
2017-05-25T19:17:20.012Z,4.52
2017-05-25T19:19:47.498Z,3.78
2017-05-25T19:22:15.518Z,5.20
2017-05-25T19:24:42.894Z,4.26
2017-05-25T19:27:10.889Z,4.22
2017-05-25T19:29:38.937Z,4.22
2017-05-25T19:32:05.957Z,4.70
2017-05-25T19:34:33.979Z,5.86
2017-05-25T19:37:02.235Z,5.56
2017-05-25T19:39:30.264Z,7.98
2017-05-25T19:41:58.365Z,8.34
2017-05-25T19:44:25.403Z,6.00
2017-05-25T19:46:52.788Z,8.12
2017-05-25T19:49:19.859Z,3.78
2017-05-25T19:51:46.882Z,4.98
2017-05-25T19:54:14.871Z,4.58
2017-05-25T19:56:42.897Z,5.84
2017-05-25T19:59:13.784Z,8.50
2017-05-25T20:01:41.442Z,9.98
2017-05-25T20:04:09.457Z,6.88
2017-05-25T20:06:36.571Z,6.10
2017-05-25T20:09:04.339Z,6.28
2017-05-25T20:11:32.107Z,6.10
2017-05-25T20:14:00.127Z,6.48
2017-05-25T20:16:28.119Z,4.60
2017-05-25T20:18:55.506Z,5.70
2017-05-25T20:21:22.994Z,7.26
2017-05-25T20:23:50.814Z,7.94
2017-05-25T20:26:18.846Z,6.98
2017-05-25T20:28:46.563Z,10.08
2017-05-25T20:31:14.639Z,8.12
2017-05-25T20:33:42.653Z,6.70
2017-05-25T20:36:10.435Z,5.92
2017-05-25T20:38:38.481Z,9.18
2017-05-25T20:41:06.283Z,5.54
2017-05-25T20:43:34.504Z,5.88
2017-05-25T20:46:07.109Z,6.36
2017-05-25T20:48:34.559Z,6.68
2017-05-25T20:51:02.727Z,6.88
2017-05-25T20:53:32.860Z,4.96
2017-05-25T20:56:01.034Z,4.18
2017-05-25T20:58:29.065Z,6.78
2017-05-25T21:00:57.984Z,5.58
2017-05-25T21:03:25.447Z,6.46
2017-05-25T21:05:53.594Z,8.70
2017-05-25T21:08:20.719Z,4.70
2017-05-25T21:10:48.116Z,5.70
2017-05-25T21:13:16.291Z,5.30
2017-05-25T21:15:43.081Z,17.56
2017-05-25T21:18:10.649Z,5.76
2017-05-25T21:20:38.745Z,4.62
2017-05-25T21:23:06.354Z,5.64
2017-05-25T21:25:33.074Z,4.70
2017-05-25T21:28:01.103Z,4.46
2017-05-25T21:30:29.183Z,6.70
2017-05-25T21:32:56.195Z,4.92
2017-05-25T21:35:22.862Z,5.68
2017-05-25T21:37:50.893Z,6.24
2017-05-25T21:40:17.994Z,4.50
2017-05-25T21:42:45.759Z,4.76
2017-05-25T21:45:14.023Z,10.14
2017-05-25T21:47:41.034Z,6.78
2017-05-25T21:50:09.096Z,4.92
2017-05-25T21:52:36.900Z,7.14
2017-05-25T21:55:05.215Z,6.80
2017-05-25T21:57:33.538Z,5.04
2017-05-25T22:00:01.563Z,5.08
2017-05-25T22:02:29.599Z,5.84
2017-05-25T22:04:56.999Z,6.42
2017-05-25T22:07:25.104Z,4.36
2017-05-25T22:09:53.136Z,5.74
2017-05-25T22:12:20.653Z,5.54
2017-05-25T22:14:48.665Z,4.80
2017-05-25T22:17:15.395Z,10.18
2017-05-25T22:19:42.823Z,6.12
2017-05-25T22:22:09.855Z,6.24
2017-05-25T22:24:37.868Z,5.64
2017-05-25T22:27:05.286Z,5.22
2017-05-25T22:29:33.049Z,6.52
2017-05-25T22:32:00.086Z,6.62
2017-05-25T22:34:28.085Z,4.96
2017-05-25T22:36:55.498Z,5.36
2017-05-25T22:39:22.191Z,5.72
2017-05-25T22:41:49.999Z,8.68
2017-05-25T22:44:17.741Z,5.06
2017-05-25T22:46:44.830Z,9.24
2017-05-25T22:49:12.580Z,5.82
2017-05-25T22:51:40.595Z,5.20
2017-05-25T22:54:07.296Z,6.18
2017-05-25T22:56:35.458Z,6.98
2017-05-25T22:59:03.612Z,6.66
2017-05-25T23:01:31.086Z,7.76
2017-05-25T23:03:59.082Z,5.88
2017-05-25T23:06:25.791Z,5.88
2017-05-25T23:08:53.646Z,6.64
2017-05-25T23:11:21.072Z,8.38
2017-05-25T23:13:47.814Z,7.08
2017-05-25T23:16:15.579Z,5.98
2017-05-25T23:18:43.558Z,6.26
2017-05-25T23:21:11.575Z,6.86
2017-05-25T23:23:39.055Z,7.78
2017-05-25T23:26:06.825Z,6.60
2017-05-25T23:28:34.857Z,6.16
2017-05-25T23:31:01.527Z,6.78
2017-05-25T23:33:29.543Z,8.50
2017-05-25T23:35:56.225Z,6.50
2017-05-25T23:38:24.199Z,9.18
2017-05-25T23:40:50.832Z,7.94
2017-05-25T23:43:17.852Z,7.68
2017-05-25T23:45:45.294Z,8.80
2017-05-25T23:48:13.295Z,8.18
2017-05-25T23:50:40.006Z,7.42
2017-05-25T23:53:07.010Z,7.12
2017-05-25T23:55:34.421Z,7.60
2017-05-25T23:58:02.413Z,7.92
